Aviation Digital Data Service (ADDS)

Output produced by METARs form (1619 UTC 23 January 2019)
found at http://www.aviationweather.gov/metar/data/
 
Forecast for: VOMY (MYSORE , IN)
Text: TAF VOMY 230800Z 2309/2318 VRB03KT 6000 FEW015
Forecast period: 0900 to 1800 UTC 23 January 2019
Forecast type: FROM: standard forecast or significant change
Winds: variable direction winds at 3 MPH (3 knots; 1.5 m/s)
Visibility: 4 miles (6 km)
Ceiling: at least 12,000 feet AGL
Clouds: few clouds at 1500 feet AGL
Weather: no significant weather forecast for this period